Roberts, MT (59070)

5:56 AM MDT on August 27, 2016 (GMT -0600)
Willow Creek Road | | Change Station

Elev 5102 ft 45.27 °N, 109.26 °W | Updated 2 minutes ago

Scattered Clouds
Scattered Clouds
47.1 °F
Feels Like 46 °F
N
3.2
Wind Variable Wind from SSE

Today
High -- | Low -- °F
--% Chance of Precip.
Yesterday
High -- | Low -- °F
Precip. -- in
Pressure 29.88 in
Visibility 10.0 miles
Clouds Few 17000 ft
Scattered Clouds 25000 ft
Windchill 46 °F
Dew Point 39 °F
Humidity 73%
Rainfall 0.00 in
Snow Depth Not available.
6:33 AM 8:02 PM
Waning Crescent, 25% visible
METAR KBIL 271153Z 23007KT 10SM FEW170 SCT250 09/05 A2993 RMK AO2 SLP116 T00940050 10144 20089 56006
Pressure 29.88 in
Visibility 10.0 miles
Clouds Few 17000 ft
Scattered Clouds 25000 ft
Windchill 46 °F
Dew Point 39 °F
Humidity 73%
Rainfall 0.00 in
Snow Depth Not available.
6:33 AM 8:02 PM
Waning Crescent, 25% visible
METAR KBIL 271153Z 23007KT 10SM FEW170 SCT250 09/05 A2993 RMK AO2 SLP116 T00940050 10144 20089 56006

10-Day Weather Forecast

Almanac

Astronomy

Aug. 27, 2016 Rise Set
Actual Time
Civil Twilight
Nautical Twilight
Astronomical Twilight
Moon
Length of Visible Light
Length of Day
Tomorrow will be .
, % of the Moon is Illuminated

Today's Extremes

State Highs State Lows

Community

WunderPhotos

Upload Photos

1,935,325 photos uploaded!

WunderBlog® & News

Nearby

Air Quality

  Air Quality AQ Index Pollutant
Not available.

Snow Depth

Station Depth Elevation

Earthquake Activity

City Distance Mag. Time & Date
Minimum magnitude displayed is 2.5.

Coastal Water Temperatures

Place Temperature

Stations

Nearby Weather Stations

Station Location Temp. Windchill Dew Point Humidity Wind Precip. Elev Updated Type
                   

Watches & Warnings

There are currently no watches in effect.